sensor_id;sensor_type;location;lat;lon;timestamp;P1;durP1;ratioP1;P2;durP2;ratioP2
55601;SDS011;59921;51.332;12.410;2023-05-07T00:02:04;4.55;;;3.53;;
55601;SDS011;59921;51.332;12.410;2023-05-07T00:04:30;4.05;;;3.25;;
55601;SDS011;59921;51.332;12.410;2023-05-07T00:07:02;3.90;;;3.22;;
55601;SDS011;59921;51.332;12.410;2023-05-07T00:09:28;4.80;;;3.65;;
55601;SDS011;59921;51.332;12.410;2023-05-07T00:11:53;4.47;;;3.40;;
55601;SDS011;59921;51.332;12.410;2023-05-07T00:14:19;4.40;;;3.40;;
55601;SDS011;59921;51.332;12.410;2023-05-07T00:16:46;4.10;;;3.15;;
55601;SDS011;59921;51.332;12.410;2023-05-07T00:19:11;4.25;;;3.30;;
55601;SDS011;59921;51.332;12.410;2023-05-07T00:21:37;4.43;;;3.55;;
55601;SDS011;59921;51.332;12.410;2023-05-07T00:24:03;4.53;;;3.58;;
55601;SDS011;59921;51.332;12.410;2023-05-07T00:26:28;4.75;;;3.53;;
55601;SDS011;59921;51.332;12.410;2023-05-07T00:28:54;4.13;;;3.30;;
55601;SDS011;59921;51.332;12.410;2023-05-07T00:31:20;4.53;;;3.20;;
55601;SDS011;59921;51.332;12.410;2023-05-07T00:33:45;3.83;;;3.25;;
55601;SDS011;59921;51.332;12.410;2023-05-07T00:36:11;3.80;;;3.05;;
55601;SDS011;59921;51.332;12.410;2023-05-07T00:38:37;4.13;;;3.10;;
55601;SDS011;59921;51.332;12.410;2023-05-07T00:41:02;4.53;;;3.30;;
55601;SDS011;59921;51.332;12.410;2023-05-07T00:43:28;4.28;;;3.03;;
55601;SDS011;59921;51.332;12.410;2023-05-07T00:45:53;3.78;;;2.97;;
55601;SDS011;59921;51.332;12.410;2023-05-07T00:48:19;3.92;;;3.00;;
55601;SDS011;59921;51.332;12.410;2023-05-07T00:50:45;4.13;;;3.20;;
55601;SDS011;59921;51.332;12.410;2023-05-07T00:53:12;4.32;;;3.25;;
55601;SDS011;59921;51.332;12.410;2023-05-07T00:55:38;4.38;;;3.15;;
55601;SDS011;59921;51.332;12.410;2023-05-07T00:58:04;4.30;;;3.05;;
55601;SDS011;59921;51.332;12.410;2023-05-07T01:00:30;4.07;;;3.13;;
55601;SDS011;59921;51.332;12.410;2023-05-07T01:02:56;4.32;;;3.30;;
55601;SDS011;59921;51.332;12.410;2023-05-07T01:05:22;4.20;;;3.38;;
55601;SDS011;59921;51.332;12.410;2023-05-07T01:07:48;3.83;;;3.10;;
55601;SDS011;59921;51.332;12.410;2023-05-07T01:10:15;4.28;;;3.15;;
55601;SDS011;59921;51.332;12.410;2023-05-07T01:12:42;4.15;;;3.40;;
55601;SDS011;59921;51.332;12.410;2023-05-07T01:15:09;4.65;;;3.35;;
55601;SDS011;59921;51.332;12.410;2023-05-07T01:17:39;4.50;;;3.30;;
55601;SDS011;59921;51.332;12.410;2023-05-07T01:20:07;3.72;;;3.10;;
55601;SDS011;59921;51.332;12.410;2023-05-07T01:22:35;4.28;;;3.15;;
55601;SDS011;59921;51.332;12.410;2023-05-07T01:25:03;3.53;;;3.03;;
55601;SDS011;59921;51.332;12.410;2023-05-07T01:27:30;3.67;;;2.88;;
55601;SDS011;59921;51.332;12.410;2023-05-07T01:29:56;4.18;;;3.22;;
55601;SDS011;59921;51.332;12.410;2023-05-07T01:32:27;3.90;;;3.05;;
55601;SDS011;59921;51.332;12.410;2023-05-07T01:34:58;3.70;;;3.22;;
55601;SDS011;59921;51.332;12.410;2023-05-07T01:37:26;4.60;;;3.35;;
55601;SDS011;59921;51.332;12.410;2023-05-07T01:39:52;3.63;;;2.90;;
55601;SDS011;59921;51.332;12.410;2023-05-07T01:42:19;3.92;;;3.03;;
55601;SDS011;59921;51.332;12.410;2023-05-07T01:44:44;4.28;;;3.20;;
55601;SDS011;59921;51.332;12.410;2023-05-07T01:47:10;3.97;;;3.08;;
55601;SDS011;59921;51.332;12.410;2023-05-07T01:49:37;3.40;;;2.85;;
55601;SDS011;59921;51.332;12.410;2023-05-07T01:52:03;3.72;;;3.08;;
55601;SDS011;59921;51.332;12.410;2023-05-07T01:54:29;4.50;;;3.13;;
55601;SDS011;59921;51.332;12.410;2023-05-07T01:56:58;4.05;;;3.00;;
55601;SDS011;59921;51.332;12.410;2023-05-07T01:59:24;4.10;;;3.28;;
55601;SDS011;59921;51.332;12.410;2023-05-07T02:01:50;3.85;;;3.28;;
55601;SDS011;59921;51.332;12.410;2023-05-07T02:04:15;3.92;;;3.10;;
55601;SDS011;59921;51.332;12.410;2023-05-07T02:06:41;3.95;;;3.25;;
55601;SDS011;59921;51.332;12.410;2023-05-07T02:09:06;3.63;;;3.03;;
55601;SDS011;59921;51.332;12.410;2023-05-07T02:11:34;3.88;;;2.92;;
55601;SDS011;59921;51.332;12.410;2023-05-07T02:13:59;4.20;;;3.40;;
55601;SDS011;59921;51.332;12.410;2023-05-07T02:16:25;3.78;;;3.08;;
55601;SDS011;59921;51.332;12.410;2023-05-07T02:18:51;3.70;;;2.88;;
55601;SDS011;59921;51.332;12.410;2023-05-07T02:21:16;3.75;;;3.03;;
55601;SDS011;59921;51.332;12.410;2023-05-07T02:23:42;4.07;;;3.13;;
55601;SDS011;59921;51.332;12.410;2023-05-07T02:26:08;4.10;;;3.22;;
55601;SDS011;59921;51.332;12.410;2023-05-07T02:28:34;3.53;;;3.00;;
55601;SDS011;59921;51.332;12.410;2023-05-07T02:31:05;3.67;;;3.00;;
55601;SDS011;59921;51.332;12.410;2023-05-07T02:33:30;3.70;;;3.00;;
55601;SDS011;59921;51.332;12.410;2023-05-07T02:35:56;4.43;;;3.17;;
55601;SDS011;59921;51.332;12.410;2023-05-07T02:38:22;3.88;;;3.00;;
55601;SDS011;59921;51.332;12.410;2023-05-07T02:40:48;4.10;;;2.90;;
55601;SDS011;59921;51.332;12.410;2023-05-07T02:43:14;3.70;;;2.83;;
55601;SDS011;59921;51.332;12.410;2023-05-07T02:45:39;3.50;;;2.90;;
55601;SDS011;59921;51.332;12.410;2023-05-07T02:48:05;3.70;;;2.80;;
55601;SDS011;59921;51.332;12.410;2023-05-07T02:50:31;3.42;;;2.88;;
55601;SDS011;59921;51.332;12.410;2023-05-07T02:52:57;3.72;;;3.05;;
55601;SDS011;59921;51.332;12.410;2023-05-07T02:55:23;3.78;;;2.80;;
55601;SDS011;59921;51.332;12.410;2023-05-07T02:57:49;3.47;;;2.80;;
55601;SDS011;59921;51.332;12.410;2023-05-07T03:00:16;3.17;;;2.53;;
55601;SDS011;59921;51.332;12.410;2023-05-07T03:02:43;3.50;;;2.75;;
55601;SDS011;59921;51.332;12.410;2023-05-07T03:05:09;3.55;;;2.90;;
55601;SDS011;59921;51.332;12.410;2023-05-07T03:07:36;3.10;;;2.70;;
55601;SDS011;59921;51.332;12.410;2023-05-07T03:10:02;3.55;;;2.85;;
55601;SDS011;59921;51.332;12.410;2023-05-07T03:12:29;3.53;;;2.80;;
55601;SDS011;59921;51.332;12.410;2023-05-07T03:14:54;3.65;;;2.88;;
55601;SDS011;59921;51.332;12.410;2023-05-07T03:17:20;4.05;;;3.05;;
55601;SDS011;59921;51.332;12.410;2023-05-07T03:19:47;3.90;;;2.70;;
55601;SDS011;59921;51.332;12.410;2023-05-07T03:22:12;3.20;;;2.70;;
55601;SDS011;59921;51.332;12.410;2023-05-07T03:24:38;3.38;;;2.75;;
55601;SDS011;59921;51.332;12.410;2023-05-07T03:27:04;3.55;;;2.65;;
55601;SDS011;59921;51.332;12.410;2023-05-07T03:29:29;3.92;;;2.88;;
55601;SDS011;59921;51.332;12.410;2023-05-07T03:31:55;3.22;;;2.55;;
55601;SDS011;59921;51.332;12.410;2023-05-07T03:34:20;3.20;;;2.67;;
55601;SDS011;59921;51.332;12.410;2023-05-07T03:36:50;3.67;;;2.85;;
55601;SDS011;59921;51.332;12.410;2023-05-07T03:39:16;3.53;;;2.72;;
55601;SDS011;59921;51.332;12.410;2023-05-07T03:41:41;3.50;;;2.83;;
55601;SDS011;59921;51.332;12.410;2023-05-07T03:44:07;3.17;;;2.70;;
55601;SDS011;59921;51.332;12.410;2023-05-07T03:46:33;3.70;;;2.90;;
55601;SDS011;59921;51.332;12.410;2023-05-07T03:48:59;3.00;;;2.60;;
55601;SDS011;59921;51.332;12.410;2023-05-07T03:51:25;4.13;;;3.00;;
55601;SDS011;59921;51.332;12.410;2023-05-07T03:53:50;3.08;;;2.60;;
55601;SDS011;59921;51.332;12.410;2023-05-07T03:56:19;3.65;;;2.90;;
55601;SDS011;59921;51.332;12.410;2023-05-07T03:58:47;3.47;;;2.80;;
55601;SDS011;59921;51.332;12.410;2023-05-07T04:01:12;3.40;;;2.70;;
55601;SDS011;59921;51.332;12.410;2023-05-07T04:03:38;3.47;;;2.70;;
55601;SDS011;59921;51.332;12.410;2023-05-07T04:06:03;3.40;;;2.83;;
55601;SDS011;59921;51.332;12.410;2023-05-07T04:08:29;3.33;;;2.70;;
55601;SDS011;59921;51.332;12.410;2023-05-07T04:10:55;3.03;;;2.47;;
55601;SDS011;59921;51.332;12.410;2023-05-07T04:13:21;2.58;;;2.33;;
55601;SDS011;59921;51.332;12.410;2023-05-07T04:15:47;3.03;;;2.58;;
55601;SDS011;59921;51.332;12.410;2023-05-07T04:18:14;3.42;;;2.63;;
55601;SDS011;59921;51.332;12.410;2023-05-07T04:20:40;2.97;;;2.50;;
55601;SDS011;59921;51.332;12.410;2023-05-07T04:23:06;3.30;;;2.90;;
55601;SDS011;59921;51.332;12.410;2023-05-07T04:25:32;3.10;;;2.47;;
55601;SDS011;59921;51.332;12.410;2023-05-07T04:27:58;3.53;;;2.80;;
55601;SDS011;59921;51.332;12.410;2023-05-07T04:30:24;2.88;;;2.50;;
55601;SDS011;59921;51.332;12.410;2023-05-07T04:32:50;3.03;;;2.67;;
55601;SDS011;59921;51.332;12.410;2023-05-07T04:35:15;3.67;;;2.60;;
55601;SDS011;59921;51.332;12.410;2023-05-07T04:37:41;3.08;;;2.50;;
55601;SDS011;59921;51.332;12.410;2023-05-07T04:40:07;3.25;;;2.60;;
55601;SDS011;59921;51.332;12.410;2023-05-07T04:42:33;3.63;;;2.78;;
55601;SDS011;59921;51.332;12.410;2023-05-07T04:44:58;3.25;;;2.42;;
55601;SDS011;59921;51.332;12.410;2023-05-07T04:47:24;3.20;;;2.60;;
55601;SDS011;59921;51.332;12.410;2023-05-07T04:49:49;2.88;;;2.40;;
55601;SDS011;59921;51.332;12.410;2023-05-07T04:52:15;2.92;;;2.42;;
55601;SDS011;59921;51.332;12.410;2023-05-07T04:54:41;2.90;;;2.50;;
55601;SDS011;59921;51.332;12.410;2023-05-07T04:57:07;3.13;;;2.47;;
55601;SDS011;59921;51.332;12.410;2023-05-07T04:59:33;2.50;;;2.22;;
55601;SDS011;59921;51.332;12.410;2023-05-07T05:01:58;3.20;;;2.60;;
55601;SDS011;59921;51.332;12.410;2023-05-07T05:04:24;2.75;;;2.42;;
55601;SDS011;59921;51.332;12.410;2023-05-07T05:06:50;3.35;;;2.75;;
55601;SDS011;59921;51.332;12.410;2023-05-07T05:09:15;3.00;;;2.70;;
55601;SDS011;59921;51.332;12.410;2023-05-07T05:11:41;2.65;;;2.30;;
55601;SDS011;59921;51.332;12.410;2023-05-07T05:14:07;2.80;;;2.30;;
55601;SDS011;59921;51.332;12.410;2023-05-07T05:16:32;3.13;;;2.45;;
55601;SDS011;59921;51.332;12.410;2023-05-07T05:18:59;2.88;;;2.33;;
55601;SDS011;59921;51.332;12.410;2023-05-07T05:21:24;2.88;;;2.55;;
55601;SDS011;59921;51.332;12.410;2023-05-07T05:23:50;2.67;;;2.25;;
55601;SDS011;59921;51.332;12.410;2023-05-07T05:26:15;2.85;;;2.47;;
55601;SDS011;59921;51.332;12.410;2023-05-07T05:28:41;2.85;;;2.30;;
55601;SDS011;59921;51.332;12.410;2023-05-07T05:31:06;3.15;;;2.40;;
55601;SDS011;59921;51.332;12.410;2023-05-07T05:33:32;3.25;;;2.60;;
55601;SDS011;59921;51.332;12.410;2023-05-07T05:35:57;2.88;;;2.28;;
55601;SDS011;59921;51.332;12.410;2023-05-07T05:38:23;2.80;;;2.30;;
55601;SDS011;59921;51.332;12.410;2023-05-07T05:40:48;2.75;;;2.40;;
55601;SDS011;59921;51.332;12.410;2023-05-07T05:43:14;2.75;;;2.30;;
55601;SDS011;59921;51.332;12.410;2023-05-07T05:45:40;2.92;;;2.63;;
55601;SDS011;59921;51.332;12.410;2023-05-07T05:48:05;3.47;;;2.70;;
55601;SDS011;59921;51.332;12.410;2023-05-07T05:50:31;2.97;;;2.33;;
55601;SDS011;59921;51.332;12.410;2023-05-07T05:52:57;3.17;;;2.50;;
55601;SDS011;59921;51.332;12.410;2023-05-07T05:55:23;2.95;;;2.35;;
55601;SDS011;59921;51.332;12.410;2023-05-07T05:57:49;2.88;;;2.30;;
55601;SDS011;59921;51.332;12.410;2023-05-07T06:00:15;3.08;;;2.28;;
55601;SDS011;59921;51.332;12.410;2023-05-07T06:02:41;3.00;;;2.30;;
55601;SDS011;59921;51.332;12.410;2023-05-07T06:05:08;2.75;;;2.28;;
55601;SDS011;59921;51.332;12.410;2023-05-07T06:07:33;2.72;;;2.17;;
55601;SDS011;59921;51.332;12.410;2023-05-07T06:10:00;3.08;;;2.50;;
55601;SDS011;59921;51.332;12.410;2023-05-07T06:12:26;2.58;;;2.20;;
55601;SDS011;59921;51.332;12.410;2023-05-07T06:14:52;2.47;;;2.28;;
55601;SDS011;59921;51.332;12.410;2023-05-07T06:17:17;2.58;;;2.30;;
55601;SDS011;59921;51.332;12.410;2023-05-07T06:19:43;3.03;;;2.40;;
55601;SDS011;59921;51.332;12.410;2023-05-07T06:22:08;2.47;;;2.20;;
55601;SDS011;59921;51.332;12.410;2023-05-07T06:24:34;2.60;;;2.13;;
55601;SDS011;59921;51.332;12.410;2023-05-07T06:27:00;3.05;;;2.30;;
55601;SDS011;59921;51.332;12.410;2023-05-07T06:29:25;2.83;;;2.35;;
55601;SDS011;59921;51.332;12.410;2023-05-07T06:31:52;2.75;;;2.30;;
55601;SDS011;59921;51.332;12.410;2023-05-07T06:34:18;2.88;;;2.15;;
55601;SDS011;59921;51.332;12.410;2023-05-07T06:36:44;2.95;;;2.28;;
55601;SDS011;59921;51.332;12.410;2023-05-07T06:39:10;2.60;;;2.25;;
55601;SDS011;59921;51.332;12.410;2023-05-07T06:41:35;2.75;;;2.22;;
55601;SDS011;59921;51.332;12.410;2023-05-07T06:44:01;2.90;;;2.25;;
55601;SDS011;59921;51.332;12.410;2023-05-07T06:46:27;2.85;;;2.13;;
55601;SDS011;59921;51.332;12.410;2023-05-07T06:48:54;2.20;;;2.00;;
55601;SDS011;59921;51.332;12.410;2023-05-07T06:51:20;2.38;;;2.03;;
55601;SDS011;59921;51.332;12.410;2023-05-07T06:53:45;3.25;;;2.50;;
55601;SDS011;59921;51.332;12.410;2023-05-07T06:56:11;2.55;;;2.20;;
55601;SDS011;59921;51.332;12.410;2023-05-07T06:58:37;2.17;;;1.98;;
55601;SDS011;59921;51.332;12.410;2023-05-07T07:01:02;2.40;;;1.92;;
55601;SDS011;59921;51.332;12.410;2023-05-07T07:03:28;2.40;;;2.13;;
55601;SDS011;59921;51.332;12.410;2023-05-07T07:05:53;3.05;;;2.40;;
55601;SDS011;59921;51.332;12.410;2023-05-07T07:08:20;2.78;;;2.20;;
55601;SDS011;59921;51.332;12.410;2023-05-07T07:10:47;2.92;;;2.20;;
55601;SDS011;59921;51.332;12.410;2023-05-07T07:13:13;2.67;;;2.20;;
55601;SDS011;59921;51.332;12.410;2023-05-07T07:15:38;2.13;;;1.83;;
55601;SDS011;59921;51.332;12.410;2023-05-07T07:18:04;2.10;;;1.90;;
55601;SDS011;59921;51.332;12.410;2023-05-07T07:20:29;2.72;;;2.10;;
55601;SDS011;59921;51.332;12.410;2023-05-07T07:22:55;2.65;;;2.10;;
55601;SDS011;59921;51.332;12.410;2023-05-07T07:25:21;2.22;;;1.83;;
55601;SDS011;59921;51.332;12.410;2023-05-07T07:27:46;2.28;;;2.00;;
55601;SDS011;59921;51.332;12.410;2023-05-07T07:30:12;2.45;;;2.22;;
55601;SDS011;59921;51.332;12.410;2023-05-07T07:32:38;2.25;;;1.85;;
55601;SDS011;59921;51.332;12.410;2023-05-07T07:35:03;2.38;;;2.10;;
55601;SDS011;59921;51.332;12.410;2023-05-07T07:37:29;2.63;;;2.10;;
55601;SDS011;59921;51.332;12.410;2023-05-07T07:39:55;2.97;;;2.30;;
55601;SDS011;59921;51.332;12.410;2023-05-07T07:42:21;2.60;;;1.95;;
55601;SDS011;59921;51.332;12.410;2023-05-07T07:44:46;2.20;;;1.85;;
55601;SDS011;59921;51.332;12.410;2023-05-07T07:47:12;2.42;;;2.20;;
55601;SDS011;59921;51.332;12.410;2023-05-07T07:49:38;2.72;;;2.22;;
55601;SDS011;59921;51.332;12.410;2023-05-07T07:52:03;2.60;;;2.00;;
55601;SDS011;59921;51.332;12.410;2023-05-07T07:54:29;2.95;;;2.35;;
55601;SDS011;59921;51.332;12.410;2023-05-07T07:56:55;2.50;;;2.10;;
55601;SDS011;59921;51.332;12.410;2023-05-07T07:59:20;2.40;;;1.80;;
55601;SDS011;59921;51.332;12.410;2023-05-07T08:01:46;2.60;;;1.92;;
55601;SDS011;59921;51.332;12.410;2023-05-07T08:04:13;2.00;;;1.80;;
55601;SDS011;59921;51.332;12.410;2023-05-07T08:06:38;2.38;;;2.08;;
55601;SDS011;59921;51.332;12.410;2023-05-07T08:09:04;2.35;;;1.98;;
55601;SDS011;59921;51.332;12.410;2023-05-07T08:11:30;2.35;;;2.00;;
55601;SDS011;59921;51.332;12.410;2023-05-07T08:13:55;2.42;;;2.03;;
55601;SDS011;59921;51.332;12.410;2023-05-07T08:16:21;2.17;;;1.88;;
55601;SDS011;59921;51.332;12.410;2023-05-07T08:18:47;2.60;;;2.05;;
55601;SDS011;59921;51.332;12.410;2023-05-07T08:21:12;2.60;;;2.03;;
55601;SDS011;59921;51.332;12.410;2023-05-07T08:23:38;2.40;;;2.10;;
55601;SDS011;59921;51.332;12.410;2023-05-07T08:26:04;2.17;;;1.80;;
55601;SDS011;59921;51.332;12.410;2023-05-07T08:28:29;2.15;;;1.85;;
55601;SDS011;59921;51.332;12.410;2023-05-07T08:30:54;2.25;;;1.92;;
55601;SDS011;59921;51.332;12.410;2023-05-07T08:33:21;2.50;;;2.10;;
55601;SDS011;59921;51.332;12.410;2023-05-07T08:35:47;2.15;;;1.88;;
55601;SDS011;59921;51.332;12.410;2023-05-07T08:38:14;2.10;;;1.90;;
55601;SDS011;59921;51.332;12.410;2023-05-07T08:40:40;2.05;;;1.85;;
55601;SDS011;59921;51.332;12.410;2023-05-07T08:43:10;2.05;;;1.77;;
55601;SDS011;59921;51.332;12.410;2023-05-07T08:45:40;2.10;;;1.90;;
55601;SDS011;59921;51.332;12.410;2023-05-07T08:48:19;1.90;;;1.70;;
55601;SDS011;59921;51.332;12.410;2023-05-07T08:50:47;2.10;;;1.88;;
55601;SDS011;59921;51.332;12.410;2023-05-07T08:53:13;2.38;;;1.83;;
55601;SDS011;59921;51.332;12.410;2023-05-07T08:55:42;1.95;;;1.70;;
55601;SDS011;59921;51.332;12.410;2023-05-07T08:58:08;2.42;;;1.85;;
55601;SDS011;59921;51.332;12.410;2023-05-07T09:00:33;2.00;;;1.67;;
55601;SDS011;59921;51.332;12.410;2023-05-07T09:03:04;2.58;;;1.80;;
55601;SDS011;59921;51.332;12.410;2023-05-07T09:05:30;2.05;;;1.85;;
55601;SDS011;59921;51.332;12.410;2023-05-07T09:07:59;2.33;;;1.80;;
55601;SDS011;59921;51.332;12.410;2023-05-07T09:10:25;1.98;;;1.73;;
55601;SDS011;59921;51.332;12.410;2023-05-07T09:12:51;2.05;;;1.85;;
55601;SDS011;59921;51.332;12.410;2023-05-07T09:15:19;2.35;;;1.70;;
55601;SDS011;59921;51.332;12.410;2023-05-07T09:17:45;2.00;;;1.80;;
55601;SDS011;59921;51.332;12.410;2023-05-07T09:20:11;2.00;;;1.80;;
55601;SDS011;59921;51.332;12.410;2023-05-07T09:22:37;2.00;;;1.80;;
55601;SDS011;59921;51.332;12.410;2023-05-07T09:25:03;2.20;;;1.80;;
55601;SDS011;59921;51.332;12.410;2023-05-07T09:27:30;1.92;;;1.73;;
55601;SDS011;59921;51.332;12.410;2023-05-07T09:29:55;2.78;;;2.00;;
55601;SDS011;59921;51.332;12.410;2023-05-07T09:32:21;2.25;;;1.80;;
55601;SDS011;59921;51.332;12.410;2023-05-07T09:34:47;2.10;;;1.90;;
55601;SDS011;59921;51.332;12.410;2023-05-07T09:37:13;2.05;;;1.80;;
55601;SDS011;59921;51.332;12.410;2023-05-07T09:39:40;2.17;;;1.77;;
55601;SDS011;59921;51.332;12.410;2023-05-07T09:42:06;2.00;;;1.80;;
55601;SDS011;59921;51.332;12.410;2023-05-07T09:44:33;2.08;;;1.80;;
55601;SDS011;59921;51.332;12.410;2023-05-07T09:46:59;2.25;;;1.70;;
55601;SDS011;59921;51.332;12.410;2023-05-07T09:49:27;2.95;;;2.00;;
55601;SDS011;59921;51.332;12.410;2023-05-07T09:51:57;2.00;;;1.80;;
55601;SDS011;59921;51.332;12.410;2023-05-07T09:54:25;2.42;;;1.95;;
55601;SDS011;59921;51.332;12.410;2023-05-07T09:56:52;2.08;;;1.85;;
55601;SDS011;59921;51.332;12.410;2023-05-07T09:59:18;2.20;;;1.77;;
55601;SDS011;59921;51.332;12.410;2023-05-07T10:01:45;2.40;;;1.90;;
55601;SDS011;59921;51.332;12.410;2023-05-07T10:04:11;2.17;;;1.73;;
55601;SDS011;59921;51.332;12.410;2023-05-07T10:06:37;1.92;;;1.73;;
55601;SDS011;59921;51.332;12.410;2023-05-07T10:09:04;2.17;;;1.80;;
55601;SDS011;59921;51.332;12.410;2023-05-07T10:11:34;2.10;;;1.85;;
55601;SDS011;59921;51.332;12.410;2023-05-07T10:14:00;2.50;;;2.00;;
55601;SDS011;59921;51.332;12.410;2023-05-07T10:16:34;2.40;;;1.90;;
55601;SDS011;59921;51.332;12.410;2023-05-07T10:19:03;2.33;;;1.77;;
55601;SDS011;59921;51.332;12.410;2023-05-07T10:21:30;2.63;;;2.10;;
55601;SDS011;59921;51.332;12.410;2023-05-07T10:23:59;2.20;;;1.88;;
55601;SDS011;59921;51.332;12.410;2023-05-07T10:26:29;2.30;;;1.77;;
55601;SDS011;59921;51.332;12.410;2023-05-07T10:28:59;2.40;;;2.00;;
55601;SDS011;59921;51.332;12.410;2023-05-07T10:34:33;2.75;;;2.10;;
55601;SDS011;59921;51.332;12.410;2023-05-07T10:37:02;2.30;;;1.85;;
55601;SDS011;59921;51.332;12.410;2023-05-07T10:39:29;2.70;;;1.90;;
55601;SDS011;59921;51.332;12.410;2023-05-07T10:41:56;3.00;;;2.15;;
55601;SDS011;59921;51.332;12.410;2023-05-07T10:44:25;2.85;;;2.20;;
55601;SDS011;59921;51.332;12.410;2023-05-07T10:47:25;2.60;;;1.98;;
55601;SDS011;59921;51.332;12.410;2023-05-07T10:52:16;3.05;;;2.10;;
55601;SDS011;59921;51.332;12.410;2023-05-07T11:00:03;3.20;;;2.35;;
55601;SDS011;59921;51.332;12.410;2023-05-07T11:05:29;3.05;;;2.28;;
55601;SDS011;59921;51.332;12.410;2023-05-07T11:18:48;3.50;;;2.38;;
55601;SDS011;59921;51.332;12.410;2023-05-07T11:21:34;3.70;;;2.40;;
55601;SDS011;59921;51.332;12.410;2023-05-07T11:24:02;3.05;;;2.10;;
55601;SDS011;59921;51.332;12.410;2023-05-07T11:26:29;3.47;;;2.50;;
55601;SDS011;59921;51.332;12.410;2023-05-07T11:28:56;3.50;;;2.42;;
55601;SDS011;59921;51.332;12.410;2023-05-07T11:31:27;3.15;;;2.40;;
55601;SDS011;59921;51.332;12.410;2023-05-07T11:33:54;2.85;;;2.28;;
55601;SDS011;59921;51.332;12.410;2023-05-07T11:36:21;3.55;;;2.67;;
55601;SDS011;59921;51.332;12.410;2023-05-07T11:38:48;3.10;;;2.33;;
55601;SDS011;59921;51.332;12.410;2023-05-07T11:41:13;3.20;;;2.40;;
55601;SDS011;59921;51.332;12.410;2023-05-07T11:43:53;3.72;;;2.30;;
55601;SDS011;59921;51.332;12.410;2023-05-07T11:46:22;3.17;;;2.50;;
55601;SDS011;59921;51.332;12.410;2023-05-07T11:48:48;3.40;;;2.58;;
55601;SDS011;59921;51.332;12.410;2023-05-07T11:51:14;4.35;;;2.42;;
55601;SDS011;59921;51.332;12.410;2023-05-07T11:53:44;3.47;;;2.33;;
55601;SDS011;59921;51.332;12.410;2023-05-07T11:56:11;3.20;;;2.38;;
55601;SDS011;59921;51.332;12.410;2023-05-07T11:58:42;3.58;;;2.45;;
55601;SDS011;59921;51.332;12.410;2023-05-07T12:01:09;3.83;;;2.60;;
55601;SDS011;59921;51.332;12.410;2023-05-07T12:03:36;3.40;;;2.50;;
55601;SDS011;59921;51.332;12.410;2023-05-07T12:06:02;3.53;;;2.50;;
55601;SDS011;59921;51.332;12.410;2023-05-07T12:08:31;3.90;;;2.30;;
55601;SDS011;59921;51.332;12.410;2023-05-07T12:10:56;3.83;;;2.55;;
55601;SDS011;59921;51.332;12.410;2023-05-07T12:13:23;3.33;;;2.30;;
55601;SDS011;59921;51.332;12.410;2023-05-07T12:15:50;3.17;;;2.30;;
55601;SDS011;59921;51.332;12.410;2023-05-07T12:18:16;3.08;;;2.30;;
55601;SDS011;59921;51.332;12.410;2023-05-07T12:20:42;3.00;;;2.22;;
55601;SDS011;59921;51.332;12.410;2023-05-07T12:23:08;3.10;;;2.38;;
55601;SDS011;59921;51.332;12.410;2023-05-07T12:25:40;3.10;;;2.50;;
55601;SDS011;59921;51.332;12.410;2023-05-07T12:28:14;2.67;;;2.13;;
55601;SDS011;59921;51.332;12.410;2023-05-07T12:30:41;2.75;;;2.30;;
55601;SDS011;59921;51.332;12.410;2023-05-07T12:33:08;2.95;;;2.30;;
55601;SDS011;59921;51.332;12.410;2023-05-07T12:35:39;3.08;;;2.30;;
55601;SDS011;59921;51.332;12.410;2023-05-07T12:38:09;3.65;;;2.67;;
55601;SDS011;59921;51.332;12.410;2023-05-07T12:40:40;3.25;;;2.38;;
55601;SDS011;59921;51.332;12.410;2023-05-07T12:43:07;3.72;;;2.78;;
55601;SDS011;59921;51.332;12.410;2023-05-07T12:45:41;3.38;;;2.40;;
55601;SDS011;59921;51.332;12.410;2023-05-07T12:48:09;3.70;;;2.50;;
55601;SDS011;59921;51.332;12.410;2023-05-07T12:50:35;3.30;;;2.40;;
55601;SDS011;59921;51.332;12.410;2023-05-07T12:53:02;3.95;;;2.65;;
55601;SDS011;59921;51.332;12.410;2023-05-07T12:55:31;3.42;;;2.40;;
55601;SDS011;59921;51.332;12.410;2023-05-07T12:58:00;2.92;;;2.13;;
55601;SDS011;59921;51.332;12.410;2023-05-07T13:00:37;3.15;;;2.38;;
55601;SDS011;59921;51.332;12.410;2023-05-07T13:03:03;3.17;;;2.53;;
55601;SDS011;59921;51.332;12.410;2023-05-07T13:05:29;3.63;;;2.53;;
55601;SDS011;59921;51.332;12.410;2023-05-07T13:07:55;3.10;;;2.20;;
55601;SDS011;59921;51.332;12.410;2023-05-07T13:10:21;3.08;;;2.45;;
55601;SDS011;59921;51.332;12.410;2023-05-07T13:12:48;3.20;;;2.30;;
55601;SDS011;59921;51.332;12.410;2023-05-07T13:15:14;3.17;;;2.20;;
55601;SDS011;59921;51.332;12.410;2023-05-07T13:17:40;3.55;;;2.42;;
55601;SDS011;59921;51.332;12.410;2023-05-07T13:20:05;2.63;;;2.03;;
55601;SDS011;59921;51.332;12.410;2023-05-07T13:22:33;3.40;;;2.38;;
55601;SDS011;59921;51.332;12.410;2023-05-07T13:24:58;3.03;;;2.15;;
55601;SDS011;59921;51.332;12.410;2023-05-07T13:27:24;2.70;;;2.10;;
55601;SDS011;59921;51.332;12.410;2023-05-07T13:29:50;2.22;;;2.00;;
55601;SDS011;59921;51.332;12.410;2023-05-07T13:32:15;2.83;;;2.08;;
55601;SDS011;59921;51.332;12.410;2023-05-07T13:34:41;3.63;;;2.40;;
55601;SDS011;59921;51.332;12.410;2023-05-07T13:37:06;3.25;;;2.45;;
55601;SDS011;59921;51.332;12.410;2023-05-07T13:39:32;3.13;;;2.30;;
55601;SDS011;59921;51.332;12.410;2023-05-07T13:41:58;2.72;;;2.15;;
55601;SDS011;59921;51.332;12.410;2023-05-07T13:44:24;3.15;;;2.45;;
55601;SDS011;59921;51.332;12.410;2023-05-07T13:46:50;2.60;;;2.30;;
55601;SDS011;59921;51.332;12.410;2023-05-07T13:49:16;2.88;;;2.20;;
55601;SDS011;59921;51.332;12.410;2023-05-07T13:51:42;3.25;;;2.40;;
55601;SDS011;59921;51.332;12.410;2023-05-07T13:54:07;3.55;;;2.42;;
55601;SDS011;59921;51.332;12.410;2023-05-07T13:56:33;2.58;;;2.15;;
55601;SDS011;59921;51.332;12.410;2023-05-07T13:58:59;3.65;;;2.28;;
55601;SDS011;59921;51.332;12.410;2023-05-07T14:01:24;2.67;;;2.10;;
55601;SDS011;59921;51.332;12.410;2023-05-07T14:03:50;3.00;;;2.13;;
55601;SDS011;59921;51.332;12.410;2023-05-07T14:06:15;2.97;;;2.20;;
55601;SDS011;59921;51.332;12.410;2023-05-07T14:08:41;3.22;;;2.35;;
55601;SDS011;59921;51.332;12.410;2023-05-07T14:11:07;2.92;;;2.13;;
55601;SDS011;59921;51.332;12.410;2023-05-07T14:13:32;2.90;;;2.30;;
55601;SDS011;59921;51.332;12.410;2023-05-07T14:15:59;3.50;;;2.40;;
55601;SDS011;59921;51.332;12.410;2023-05-07T14:18:25;2.70;;;2.15;;
55601;SDS011;59921;51.332;12.410;2023-05-07T14:20:51;3.22;;;2.28;;
55601;SDS011;59921;51.332;12.410;2023-05-07T14:23:17;3.17;;;2.30;;
55601;SDS011;59921;51.332;12.410;2023-05-07T14:25:44;2.67;;;2.30;;
55601;SDS011;59921;51.332;12.410;2023-05-07T14:28:12;2.78;;;2.20;;
55601;SDS011;59921;51.332;12.410;2023-05-07T14:30:38;3.10;;;2.45;;
55601;SDS011;59921;51.332;12.410;2023-05-07T14:33:04;2.55;;;1.92;;
55601;SDS011;59921;51.332;12.410;2023-05-07T14:35:29;3.28;;;2.25;;
55601;SDS011;59921;51.332;12.410;2023-05-07T14:37:55;3.33;;;2.40;;
55601;SDS011;59921;51.332;12.410;2023-05-07T14:40:20;3.15;;;2.33;;
55601;SDS011;59921;51.332;12.410;2023-05-07T14:42:46;2.53;;;2.03;;
55601;SDS011;59921;51.332;12.410;2023-05-07T14:45:12;2.70;;;2.17;;
55601;SDS011;59921;51.332;12.410;2023-05-07T14:47:38;2.80;;;2.10;;
55601;SDS011;59921;51.332;12.410;2023-05-07T14:50:03;3.15;;;2.30;;
55601;SDS011;59921;51.332;12.410;2023-05-07T14:52:29;2.63;;;2.20;;
55601;SDS011;59921;51.332;12.410;2023-05-07T14:54:55;2.95;;;2.22;;